Wetterdaten: Woche 23.02.15 - 01.03.15 (KW9)
Datum Zeit Temp. A. Feuchte A. Luftdruck Regen Wind Richtung Sonnenschein ET UV Solar Taupunkt Windchill Windben
23.02.2015 00:00 -3,3 C 91 % 1009,7 hPa 0,0 l/m 0,3 km/h (0 Bft) N 0,00 h 0,000 mm 0,0 UV-I 0 W/m -4,5 C -3,3 C 0,7 km/h (0 Bft)
23.02.2015 01:00 -3,8 C 92 % 1009,4 hPa 0,0 l/m 0,1 km/h (0 Bft) N 0,00 h 0,000 mm 0,0 UV-I 0 W/m -5,0 C -3,8 C 0,3 km/h (0 Bft)
23.02.2015 02:00 -4,3 C 92 % 1008,4 hPa 0,0 l/m 0,1 km/h (0 Bft) N 0,00 h 0,000 mm 0,0 UV-I 0 W/m -5,4 C -4,3 C 0,3 km/h (0 Bft)
23.02.2015 03:00 -4,7 C 92 % 1007,4 hPa 0,0 l/m 0,0 km/h (0 Bft) N 0,00 h 0,000 mm 0,0 UV-I 0 W/m -5,8 C -4,7 C 0,1 km/h (0 Bft)
23.02.2015 04:00 -4,9 C 93 % 1006,8 hPa 0,0 l/m 0,1 km/h (0 Bft) N 0,00 h 0,000 mm 0,0 UV-I 0 W/m -5,9 C -4,9 C 0,6 km/h (0 Bft)
23.02.2015 05:00 -5,3 C 92 % 1006,2 hPa 0,0 l/m 0,0 km/h (0 Bft) N 0,00 h 0,000 mm 0,0 UV-I 0 W/m -6,4 C -5,3 C 0,2 km/h (0 Bft)
23.02.2015 06:00 -5,6 C 93 % 1005,6 hPa 0,0 l/m 0,9 km/h (0 Bft) O-SO 0,00 h 0,000 mm 0,0 UV-I 0 W/m -6,6 C -5,6 C 2,2 km/h (1 Bft)
23.02.2015 07:00 -4,4 C 95 % 1005,1 hPa 0,0 l/m 0,3 km/h (0 Bft) N 0,15 h 0,000 mm 0,0 UV-I 31 W/m -5,0 C -4,4 C 0,9 km/h (0 Bft)
23.02.2015 08:00 -0,3 C 94 % 1004,6 hPa 0,2 l/m 6,0 km/h (2 Bft) S-SO 1,00 h 0,000 mm 0,5 UV-I 165 W/m -1,2 C -1,5 C 9,6 km/h (2 Bft)
23.02.2015 09:00 1,4 C 89 % 1003,7 hPa 0,0 l/m 12,1 km/h (2 Bft) S 1,00 h 0,051 mm 0,8 UV-I 189 W/m -0,3 C -3,3 C 18,9 km/h (3 Bft)
23.02.2015 10:00 2,1 C 85 % 1003,2 hPa 0,0 l/m 14,9 km/h (3 Bft) S 1,00 h 0,076 mm 1,1 UV-I 220 W/m -0,1 C -4,2 C 23,0 km/h (4 Bft)
23.02.2015 11:00 2,9 C 82 % 1002,2 hPa 0,0 l/m 14,4 km/h (3 Bft) S 1,00 h 0,102 mm 1,4 UV-I 272 W/m 0,1 C -2,9 C 21,8 km/h (4 Bft)
23.02.2015 12:00 3,6 C 78 % 1000,8 hPa 0,0 l/m 15,9 km/h (3 Bft) S-SO 1,00 h 0,127 mm 1,6 UV-I 301 W/m 0,1 C -2,8 C 22,9 km/h (4 Bft)
23.02.2015 13:00 3,7 C 74 % 1000,5 hPa 0,0 l/m 12,1 km/h (2 Bft) S 1,00 h 0,152 mm 1,0 UV-I 164 W/m -0,5 C -0,6 C 18,6 km/h (3 Bft)
23.02.2015 14:00 2,1 C 83 % 1000,5 hPa 0,0 l/m 10,7 km/h (2 Bft) S 0,88 h 0,102 mm 0,6 UV-I 76 W/m -0,5 C -1,5 C 17,2 km/h (3 Bft)
23.02.2015 15:00 1,0 C 91 % 1000,6 hPa 0,0 l/m 7,8 km/h (2 Bft) S 0,28 h 0,051 mm 0,0 UV-I 45 W/m -0,3 C -0,6 C 12,7 km/h (3 Bft)
23.02.2015 16:00 0,8 C 93 % 1000,7 hPa 0,0 l/m 5,8 km/h (2 Bft) S 0,00 h 0,025 mm 0,0 UV-I 18 W/m -0,1 C 0,1 C 9,6 km/h (2 Bft)
23.02.2015 17:00 0,8 C 94 % 1000,8 hPa 0,0 l/m 8,2 km/h (2 Bft) S 0,00 h 0,000 mm 0,0 UV-I 6 W/m -0,0 C -1,1 C 12,7 km/h (3 Bft)
23.02.2015 18:00 1,0 C 95 % 1001,6 hPa 0,0 l/m 4,9 km/h (1 Bft) S 0,00 h 0,000 mm 0,0 UV-I 0 W/m 0,2 C 0,6 C 8,5 km/h (2 Bft)
23.02.2015 19:00 1,1 C 95 % 1002,1 hPa 0,0 l/m 5,3 km/h (1 Bft) S 0,00 h 0,000 mm 0,0 UV-I 0 W/m 0,5 C 0,7 C 8,9 km/h (2 Bft)
23.02.2015 20:00 1,3 C 96 % 1002,5 hPa 0,0 l/m 5,3 km/h (1 Bft) S 0,00 h 0,000 mm 0,0 UV-I 0 W/m 0,7 C 1,0 C 8,1 km/h (2 Bft)
23.02.2015 21:00 1,3 C 96 % 1002,8 hPa 0,0 l/m 3,9 km/h (1 Bft) S 0,00 h 0,000 mm 0,0 UV-I 0 W/m 0,8 C 1,3 C 6,5 km/h (2 Bft)
23.02.2015 22:00 1,5 C 97 % 1003,1 hPa 0,0 l/m 2,7 km/h (1 Bft) W-SW 0,00 h 0,000 mm 0,0 UV-I 0 W/m 1,0 C 1,5 C 5,5 km/h (2 Bft)
23.02.2015 23:00 1,6 C 97 % 1003,4 hPa 0,2 l/m 2,3 km/h (1 Bft) SW 0,00 h 0,000 mm 0,0 UV-I 0 W/m 1,2 C 1,6 C 4,5 km/h (1 Bft)
24.02.2015 00:00 1,6 C 97 % 1003,4 hPa 0,0 l/m 1,1 km/h (1 Bft) S 0,00 h 0,000 mm 0,0 UV-I 0 W/m 1,2 C 1,6 C 2,9 km/h (1 Bft)
24.02.2015 01:00 2,0 C 97 % 1003,6 hPa 0,0 l/m 3,5 km/h (1 Bft) S 0,00 h 0,000 mm 0,0 UV-I 0 W/m 1,5 C 2,0 C 6,2 km/h (2 Bft)
24.02.2015 02:00 2,2 C 97 % 1003,4 hPa 0,0 l/m 4,2 km/h (1 Bft) S-SO 0,00 h 0,000 mm 0,0 UV-I 0 W/m 1,8 C 2,1 C 7,2 km/h (2 Bft)
24.02.2015 03:00 2,3 C 97 % 1003,2 hPa 0,0 l/m 3,4 km/h (1 Bft) S-SW 0,00 h 0,000 mm 0,0 UV-I 0 W/m 1,8 C 2,3 C 6,6 km/h (2 Bft)
24.02.2015 04:00 2,3 C 96 % 1003,7 hPa 0,0 l/m 5,6 km/h (2 Bft) S-SW 0,00 h 0,000 mm 0,0 UV-I 0 W/m 1,7 C 1,8 C 9,8 km/h (2 Bft)
24.02.2015 05:00 2,2 C 96 % 1004,7 hPa 0,0 l/m 3,7 km/h (1 Bft) SW 0,00 h 0,000 mm 0,0 UV-I 0 W/m 1,6 C 2,2 C 6,4 km/h (2 Bft)
24.02.2015 06:00 2,1 C 96 % 1005,0 hPa 0,0 l/m 1,2 km/h (1 Bft) S 0,00 h 0,000 mm 0,0 UV-I 0 W/m 1,5 C 2,1 C 2,7 km/h (1 Bft)
24.02.2015 07:00 2,0 C 96 % 1005,6 hPa 0,0 l/m 1,8 km/h (1 Bft) SW 0,00 h 0,000 mm 0,0 UV-I 8 W/m 1,4 C 2,0 C 4,2 km/h (1 Bft)
24.02.2015 08:00 2,0 C 96 % 1006,7 hPa 0,0 l/m 1,5 km/h (1 Bft) S-SO 0,42 h 0,000 mm 0,0 UV-I 39 W/m 1,4 C 2,0 C 3,1 km/h (1 Bft)
24.02.2015 09:00 2,7 C 95 % 1007,5 hPa 0,2 l/m 3,0 km/h (1 Bft) W-SW 1,00 h 0,025 mm 0,6 UV-I 154 W/m 1,9 C 2,7 C 5,6 km/h (2 Bft)
24.02.2015 10:00 3,3 C 90 % 1008,1 hPa 0,0 l/m 5,4 km/h (1 Bft) SW 1,00 h 0,051 mm 0,7 UV-I 138 W/m 1,8 C 3,0 C 8,7 km/h (2 Bft)
24.02.2015 11:00 3,4 C 90 % 1008,8 hPa 0,0 l/m 6,9 km/h (2 Bft) W-SW 1,00 h 0,051 mm 0,9 UV-I 166 W/m 1,9 C 2,6 C 10,6 km/h (2 Bft)
24.02.2015 12:00 3,4 C 87 % 1009,2 hPa 0,0 l/m 7,7 km/h (2 Bft) W-SW 1,00 h 0,076 mm 0,7 UV-I 134 W/m 1,4 C 1,7 C 11,9 km/h (2 Bft)
24.02.2015 13:00 3,6 C 82 % 1009,6 hPa 0,0 l/m 10,0 km/h (2 Bft) W-SW 1,00 h 0,051 mm 0,9 UV-I 161 W/m 0,9 C 0,7 C 14,6 km/h (3 Bft)
24.02.2015 14:00 3,8 C 79 % 1010,0 hPa 0,0 l/m 7,3 km/h (2 Bft) W-NW 1,00 h 0,076 mm 0,8 UV-I 174 W/m 0,5 C 2,4 C 11,9 km/h (2 Bft)
24.02.2015 15:00 4,1 C 75 % 1010,3 hPa 0,0 l/m 8,4 km/h (2 Bft) W-NW 1,00 h 0,076 mm 0,6 UV-I 127 W/m 0,1 C 2,3 C 13,0 km/h (3 Bft)
24.02.2015 16:00 3,8 C 76 % 1011,0 hPa 0,0 l/m 5,8 km/h (2 Bft) W-SW 0,70 h 0,076 mm 0,0 UV-I 56 W/m -0,1 C 3,3 C 9,2 km/h (2 Bft)
24.02.2015 17:00 3,4 C 78 % 1011,9 hPa 0,0 l/m 3,0 km/h (1 Bft) W-SW 0,00 h 0,025 mm 0,0 UV-I 13 W/m -0,1 C 3,4 C 5,2 km/h (1 Bft)
24.02.2015 18:00 3,0 C 78 % 1012,8 hPa 0,0 l/m 2,9 km/h (1 Bft) W-SW 0,00 h 0,000 mm 0,0 UV-I 0 W/m -0,4 C 3,0 C 5,2 km/h (1 Bft)
24.02.2015 19:00 2,6 C 81 % 1013,6 hPa 0,0 l/m 0,1 km/h (0 Bft) N 0,00 h 0,025 mm 0,0 UV-I 0 W/m -0,4 C 2,6 C 0,5 km/h (0 Bft)
24.02.2015 20:00 2,0 C 83 % 1014,3 hPa 0,0 l/m 0,5 km/h (0 Bft) N 0,00 h 0,000 mm 0,0 UV-I 0 W/m -0,6 C 2,0 C 1,3 km/h (1 Bft)
24.02.2015 21:00 1,4 C 85 % 1014,9 hPa 0,0 l/m 0,0 km/h (0 Bft) N 0,00 h 0,001 mm 0,0 UV-I 0 W/m -0,8 C 1,4 C 0,2 km/h (0 Bft)
24.02.2015 22:00 0,5 C 88 % 1015,4 hPa 0,0 l/m 0,0 km/h (0 Bft) N 0,00 h 0,000 mm 0,0 UV-I 0 W/m -1,2 C 0,5 C 0,2 km/h (0 Bft)
24.02.2015 23:00 -0,2 C 90 % 1015,7 hPa 0,0 l/m 0,4 km/h (0 Bft) N 0,00 h 0,000 mm 0,0 UV-I 0 W/m -1,6 C -0,2 C 0,9 km/h (0 Bft)
25.02.2015 00:00 -0,7 C 92 % 1016,0 hPa 0,0 l/m 0,9 km/h (0 Bft) O-SO 0,00 h 0,000 mm 0,0 UV-I 0 W/m -1,8 C -0,7 C 2,2 km/h (1 Bft)
25.02.2015 01:00 -0,5 C 92 % 1016,4 hPa 0,0 l/m 0,6 km/h (0 Bft) SO 0,00 h 0,000 mm 0,0 UV-I 0 W/m -1,6 C -0,5 C 2,0 km/h (1 Bft)
25.02.2015 02:00 -0,9 C 92 % 1016,6 hPa 0,0 l/m 0,2 km/h (0 Bft) N 0,00 h 0,000 mm 0,0 UV-I 0 W/m -2,1 C -0,9 C 0,6 km/h (0 Bft)
25.02.2015 03:00 -1,6 C 92 % 1016,8 hPa 0,0 l/m 1,1 km/h (0 Bft) N 0,00 h 0,000 mm 0,0 UV-I 0 W/m -2,6 C -1,6 C 2,1 km/h (1 Bft)
25.02.2015 04:00 -1,7 C 94 % 1017,4 hPa 0,0 l/m 0,6 km/h (0 Bft) N 0,00 h 0,000 mm 0,0 UV-I 0 W/m -2,5 C -1,7 C 1,8 km/h (1 Bft)
25.02.2015 05:00 -0,8 C 95 % 1017,8 hPa 0,0 l/m 0,9 km/h (0 Bft) N 0,00 h 0,000 mm 0,0 UV-I 0 W/m -1,5 C -0,8 C 2,5 km/h (1 Bft)
25.02.2015 06:00 -0,3 C 94 % 1018,3 hPa 0,0 l/m 0,9 km/h (0 Bft) W-SW 0,00 h 0,000 mm 0,0 UV-I 0 W/m -1,1 C -0,3 C 2,4 km/h (1 Bft)
25.02.2015 07:00 -0,2 C 93 % 1018,6 hPa 0,0 l/m 0,5 km/h (0 Bft) N 0,00 h 0,000 mm 0,0 UV-I 15 W/m -1,2 C -0,2 C 1,3 km/h (1 Bft)
25.02.2015 08:00 -0,0 C 94 % 1019,0 hPa 0,0 l/m 0,5 km/h (0 Bft) N 0,83 h 0,000 mm 0,5 UV-I 83 W/m -1,0 C -0,0 C 1,4 km/h (1 Bft)
25.02.2015 09:00 1,4 C 90 % 1019,1 hPa 0,0 l/m 0,9 km/h (0 Bft) SO 1,00 h 0,025 mm 0,8 UV-I 210 W/m 0,1 C 1,4 C 2,2 km/h (1 Bft)
25.02.2015 10:00 2,3 C 87 % 1019,4 hPa 0,0 l/m 4,5 km/h (1 Bft) W-SW 1,00 h 0,076 mm 0,7 UV-I 147 W/m 0,4 C 1,9 C 7,7 km/h (2 Bft)
25.02.2015 11:00 2,5 C 86 % 1019,7 hPa 0,0 l/m 3,5 km/h (1 Bft) W-SW 1,00 h 0,051 mm 0,9 UV-I 137 W/m 0,5 C 2,5 C 6,0 km/h (2 Bft)
25.02.2015 12:00 3,2 C 84 % 1019,8 hPa 0,0 l/m 5,2 km/h (1 Bft) W-SW 1,00 h 0,051 mm 0,8 UV-I 143 W/m 0,8 C 2,6 C 8,3 km/h (2 Bft)
25.02.2015 13:00 3,4 C 83 % 1019,8 hPa 0,0 l/m 7,4 km/h (2 Bft) W-SW 1,00 h 0,051 mm 0,9 UV-I 175 W/m 0,8 C 2,2 C 11,3 km/h (2 Bft)
25.02.2015 14:00 3,4 C 82 % 1019,8 hPa 0,0 l/m 8,0 km/h (2 Bft) W-SW 1,00 h 0,076 mm 0,6 UV-I 116 W/m 0,7 C 1,8 C 11,7 km/h (2 Bft)
25.02.2015 15:00 3,2 C 84 % 1020,1 hPa 0,0 l/m 5,2 km/h (1 Bft) W-SW 1,00 h 0,051 mm 0,5 UV-I 83 W/m 0,8 C 2,9 C 8,7 km/h (2 Bft)
25.02.2015 16:00 3,4 C 83 % 1020,1 hPa 0,0 l/m 1,8 km/h (1 Bft) SW 1,00 h 0,051 mm 0,0 UV-I 83 W/m 0,8 C 3,4 C 3,4 km/h (1 Bft)
25.02.2015 17:00 3,1 C 82 % 1020,3 hPa 0,0 l/m 0,4 km/h (0 Bft) N 0,05 h 0,025 mm 0,0 UV-I 27 W/m 0,3 C 3,1 C 1,4 km/h (1 Bft)
25.02.2015 18:00 1,9 C 84 % 1021,0 hPa 0,0 l/m 0,2 km/h (0 Bft) N 0,00 h 0,000 mm 0,0 UV-I 0 W/m -0,4 C 1,9 C 0,6 km/h (0 Bft)
25.02.2015 19:00 0,2 C 87 % 1021,4 hPa 0,0 l/m 0,2 km/h (0 Bft) N 0,00 h 0,000 mm 0,0 UV-I 0 W/m -1,7 C 0,2 C 0,6 km/h (0 Bft)
25.02.2015 20:00 -1,1 C 90 % 1021,8 hPa 0,0 l/m 0,0 km/h (0 Bft) N 0,00 h 0,000 mm 0,0 UV-I 0 W/m -2,5 C -1,1 C 0,0 km/h (0 Bft)
25.02.2015 21:00 -2,0 C 91 % 1022,2 hPa 0,0 l/m 0,0 km/h (0 Bft) N 0,00 h 0,000 mm 0,0 UV-I 0 W/m -3,2 C -2,0 C 0,1 km/h (0 Bft)
25.02.2015 22:00 -2,5 C 93 % 1022,5 hPa 0,0 l/m 0,0 km/h (0 Bft) N 0,00 h 0,000 mm 0,0 UV-I 0 W/m -3,6 C -2,5 C 0,0 km/h (0 Bft)
25.02.2015 23:00 -3,1 C 93 % 1022,7 hPa 0,0 l/m 0,0 km/h (0 Bft) N 0,00 h 0,000 mm 0,0 UV-I 0 W/m -4,1 C -3,1 C 0,0 km/h (0 Bft)
26.02.2015 00:00 -3,6 C 93 % 1022,9 hPa 0,0 l/m 0,0 km/h (0 Bft) N 0,00 h 0,000 mm 0,0 UV-I 0 W/m -4,5 C -3,6 C 0,2 km/h (0 Bft)
26.02.2015 01:00 -4,0 C 93 % 1023,2 hPa 0,0 l/m 0,1 km/h (0 Bft) N 0,00 h 0,000 mm 0,0 UV-I 0 W/m -5,0 C -4,0 C 0,4 km/h (0 Bft)
26.02.2015 02:00 -4,4 C 93 % 1023,5 hPa 0,0 l/m 0,1 km/h (0 Bft) N 0,00 h 0,000 mm 0,0 UV-I 0 W/m -5,4 C -4,4 C 0,3 km/h (0 Bft)
26.02.2015 03:00 -4,9 C 93 % 1023,6 hPa 0,0 l/m 0,0 km/h (0 Bft) N 0,00 h 0,000 mm 0,0 UV-I 0 W/m -5,9 C -4,9 C 0,0 km/h (0 Bft)
26.02.2015 04:00 -5,3 C 93 % 1023,7 hPa 0,0 l/m 0,1 km/h (0 Bft) N 0,00 h 0,000 mm 0,0 UV-I 0 W/m -6,2 C -5,3 C 0,1 km/h (0 Bft)
26.02.2015 05:00 -5,6 C 93 % 1023,8 hPa 0,0 l/m 0,1 km/h (0 Bft) N 0,00 h 0,000 mm 0,0 UV-I 0 W/m -6,5 C -5,6 C 0,3 km/h (0 Bft)
26.02.2015 06:00 -5,8 C 93 % 1023,9 hPa 0,0 l/m 0,1 km/h (0 Bft) N 0,00 h 0,000 mm 0,0 UV-I 0 W/m -6,8 C -5,8 C 0,5 km/h (0 Bft)
26.02.2015 07:00 -6,0 C 93 % 1024,0 hPa 0,0 l/m 0,0 km/h (0 Bft) N 0,00 h 0,000 mm 0,0 UV-I 17 W/m -6,9 C -6,0 C 0,2 km/h (0 Bft)
26.02.2015 08:00 -4,1 C 94 % 1024,3 hPa 0,0 l/m 0,0 km/h (0 Bft) N 0,87 h 0,000 mm 0,6 UV-I 159 W/m -4,9 C -4,1 C 0,1 km/h (0 Bft)
26.02.2015 09:00 -0,7 C 90 % 1024,1 hPa 0,0 l/m 0,2 km/h (0 Bft) N 1,00 h 0,051 mm 0,9 UV-I 345 W/m -2,1 C -0,7 C 1,1 km/h (1 Bft)
26.02.2015 10:00 2,5 C 83 % 1023,8 hPa 0,0 l/m 0,6 km/h (0 Bft) N 1,00 h 0,102 mm 1,4 UV-I 462 W/m -0,1 C 2,5 C 2,0 km/h (1 Bft)
26.02.2015 11:00 5,0 C 73 % 1023,4 hPa 0,0 l/m 0,8 km/h (0 Bft) S 1,00 h 0,178 mm 1,8 UV-I 531 W/m 0,6 C 5,0 C 2,5 km/h (1 Bft)
26.02.2015 12:00 6,1 C 61 % 1022,6 hPa 0,0 l/m 1,8 km/h (1 Bft) N 1,00 h 0,203 mm 1,8 UV-I 474 W/m -0,9 C 6,1 C 4,2 km/h (1 Bft)
26.02.2015 13:00 7,1 C 53 % 1021,7 hPa 0,0 l/m 4,7 km/h (1 Bft) W-SW 1,00 h 0,203 mm 1,7 UV-I 516 W/m -1,8 C 6,9 C 7,6 km/h (2 Bft)
26.02.2015 14:00 7,1 C 51 % 1021,0 hPa 0,0 l/m 4,8 km/h (1 Bft) W-SW 1,00 h 0,229 mm 1,3 UV-I 437 W/m -2,3 C 7,1 C 8,1 km/h (2 Bft)
26.02.2015 15:00 7,0 C 50 % 1020,4 hPa 0,0 l/m 4,1 km/h (1 Bft) SW 1,00 h 0,203 mm 0,8 UV-I 306 W/m -2,8 C 6,9 C 7,1 km/h (2 Bft)
26.02.2015 16:00 6,5 C 52 % 1019,7 hPa 0,0 l/m 3,4 km/h (1 Bft) W-SW 0,97 h 0,152 mm 0,5 UV-I 131 W/m -2,7 C 6,4 C 6,0 km/h (2 Bft)
26.02.2015 17:00 5,1 C 57 % 1019,4 hPa 0,0 l/m 1,8 km/h (1 Bft) S-SW 0,03 h 0,076 mm 0,0 UV-I 22 W/m -2,7 C 5,1 C 3,9 km/h (1 Bft)
26.02.2015 18:00 3,4 C 63 % 1019,1 hPa 0,0 l/m 0,5 km/h (0 Bft) O 0,00 h 0,025 mm 0,0 UV-I 0 W/m -2,9 C 3,4 C 1,7 km/h (1 Bft)
26.02.2015 19:00 1,2 C 74 % 1019,0 hPa 0,0 l/m 0,7 km/h (0 Bft) O 0,00 h 0,025 mm 0,0 UV-I 0 W/m -2,9 C 1,2 C 1,9 km/h (1 Bft)
26.02.2015 20:00 -0,4 C 80 % 1018,5 hPa 0,0 l/m 0,0 km/h (0 Bft) N 0,00 h 0,025 mm 0,0 UV-I 0 W/m -3,3 C -0,4 C 0,5 km/h (0 Bft)
26.02.2015 21:00 -1,6 C 84 % 1018,0 hPa 0,0 l/m 0,0 km/h (0 Bft) N 0,00 h 0,000 mm 0,0 UV-I 0 W/m -3,8 C -1,6 C 0,1 km/h (0 Bft)
26.02.2015 22:00 -2,4 C 87 % 1017,4 hPa 0,0 l/m 0,0 km/h (0 Bft) N 0,00 h 0,000 mm 0,0 UV-I 0 W/m -4,2 C -2,4 C 0,0 km/h (0 Bft)
26.02.2015 23:00 -3,0 C 89 % 1016,7 hPa 0,0 l/m 0,0 km/h (0 Bft) N 0,00 h 0,000 mm 0,0 UV-I 0 W/m -4,6 C -3,0 C 0,0 km/h (0 Bft)
27.02.2015 00:00 -3,5 C 90 % 1016,2 hPa 0,0 l/m 0,0 km/h (0 Bft) N 0,00 h 0,000 mm 0,0 UV-I 0 W/m -5,0 C -3,5 C 0,0 km/h (0 Bft)
27.02.2015 01:00 -4,0 C 90 % 1015,4 hPa 0,0 l/m 0,0 km/h (0 Bft) N 0,00 h 0,000 mm 0,0 UV-I 0 W/m -5,3 C -4,0 C 0,0 km/h (0 Bft)
27.02.2015 02:00 -4,4 C 91 % 1014,7 hPa 0,0 l/m 0,1 km/h (0 Bft) N 0,00 h 0,000 mm 0,0 UV-I 0 W/m -5,6 C -4,4 C 0,4 km/h (0 Bft)
27.02.2015 03:00 -4,8 C 91 % 1013,8 hPa 0,0 l/m 0,0 km/h (0 Bft) N 0,00 h 0,000 mm 0,0 UV-I 0 W/m -6,0 C -4,8 C 0,1 km/h (0 Bft)
27.02.2015 04:00 -5,2 C 92 % 1013,3 hPa 0,0 l/m 0,0 km/h (0 Bft) N 0,00 h 0,000 mm 0,0 UV-I 0 W/m -6,4 C -5,2 C 0,2 km/h (0 Bft)
27.02.2015 05:00 -5,6 C 92 % 1013,1 hPa 0,0 l/m 0,0 km/h (0 Bft) N 0,00 h 0,000 mm 0,0 UV-I 0 W/m -6,7 C -5,6 C 0,1 km/h (0 Bft)
27.02.2015 06:00 -5,9 C 92 % 1012,8 hPa 0,0 l/m 0,0 km/h (0 Bft) N 0,00 h 0,000 mm 0,0 UV-I 0 W/m -7,0 C -5,9 C 0,0 km/h (0 Bft)
27.02.2015 07:00 -6,1 C 92 % 1012,7 hPa 0,0 l/m 0,0 km/h (0 Bft) N 0,00 h 0,000 mm 0,0 UV-I 18 W/m -7,2 C -6,1 C 0,2 km/h (0 Bft)
27.02.2015 08:00 -3,3 C 91 % 1012,8 hPa 0,0 l/m 0,0 km/h (0 Bft) N 0,92 h 0,000 mm 0,6 UV-I 174 W/m -4,6 C -3,3 C 0,2 km/h (0 Bft)
27.02.2015 09:00 1,7 C 81 % 1012,5 hPa 0,2 l/m 0,1 km/h (0 Bft) N 1,00 h 0,051 mm 0,9 UV-I 345 W/m -1,2 C 1,7 C 0,5 km/h (0 Bft)
27.02.2015 10:00 5,7 C 65 % 1012,3 hPa 0,0 l/m 1,1 km/h (1 Bft) S-SO 1,00 h 0,127 mm 1,5 UV-I 464 W/m -0,3 C 5,7 C 3,0 km/h (1 Bft)
27.02.2015 11:00 6,8 C 59 % 1012,4 hPa 0,0 l/m 1,7 km/h (1 Bft) S 1,00 h 0,203 mm 1,9 UV-I 526 W/m -0,7 C 6,8 C 3,9 km/h (1 Bft)
27.02.2015 12:00 7,5 C 57 % 1012,4 hPa 0,0 l/m 3,1 km/h (1 Bft) S 1,00 h 0,229 mm 2,0 UV-I 534 W/m -0,5 C 7,5 C 5,7 km/h (2 Bft)
27.02.2015 13:00 8,0 C 55 % 1012,2 hPa 0,0 l/m 2,4 km/h (1 Bft) SO 1,00 h 0,254 mm 1,8 UV-I 504 W/m -0,5 C 7,9 C 4,7 km/h (1 Bft)
27.02.2015 14:00 8,3 C 53 % 1012,2 hPa 0,0 l/m 2,7 km/h (1 Bft) S 1,00 h 0,229 mm 1,3 UV-I 427 W/m -0,6 C 8,3 C 5,0 km/h (1 Bft)
27.02.2015 15:00 8,4 C 51 % 1012,4 hPa 0,0 l/m 1,9 km/h (1 Bft) S 1,00 h 0,203 mm 0,8 UV-I 291 W/m -1,2 C 8,3 C 4,0 km/h (1 Bft)
27.02.2015 16:00 8,0 C 46 % 1012,9 hPa 0,0 l/m 3,9 km/h (1 Bft) W-SW 0,67 h 0,152 mm 0,5 UV-I 110 W/m -2,9 C 7,9 C 6,4 km/h (2 Bft)
27.02.2015 17:00 6,9 C 51 % 1013,6 hPa 0,0 l/m 0,5 km/h (0 Bft) N 0,00 h 0,076 mm 0,0 UV-I 15 W/m -2,7 C 6,9 C 1,2 km/h (1 Bft)
27.02.2015 18:00 4,6 C 60 % 1014,6 hPa 0,0 l/m 0,0 km/h (0 Bft) N 0,00 h 0,025 mm 0,0 UV-I 0 W/m -2,4 C 4,6 C 0,0 km/h (0 Bft)
27.02.2015 19:00 2,7 C 69 % 1015,4 hPa 0,0 l/m 0,0 km/h (0 Bft) N 0,00 h 0,025 mm 0,0 UV-I 0 W/m -2,4 C 2,7 C 0,2 km/h (0 Bft)
27.02.2015 20:00 1,6 C 75 % 1016,1 hPa 0,0 l/m 0,0 km/h (0 Bft) N 0,00 h 0,025 mm 0,0 UV-I 0 W/m -2,3 C 1,6 C 0,0 km/h (0 Bft)
27.02.2015 21:00 0,3 C 79 % 1016,9 hPa 0,0 l/m 0,0 km/h (0 Bft) N 0,00 h 0,000 mm 0,0 UV-I 0 W/m -2,9 C 0,3 C 0,3 km/h (0 Bft)
27.02.2015 22:00 -0,6 C 83 % 1017,5 hPa 0,0 l/m 0,0 km/h (0 Bft) N 0,00 h 0,000 mm 0,0 UV-I 0 W/m -3,1 C -0,6 C 0,1 km/h (0 Bft)
27.02.2015 23:00 -0,9 C 87 % 1018,1 hPa 0,0 l/m 0,0 km/h (0 Bft) N 0,00 h 0,000 mm 0,0 UV-I 0 W/m -2,9 C -0,9 C 0,0 km/h (0 Bft)
28.02.2015 00:00 -1,1 C 88 % 1018,5 hPa 0,0 l/m 0,0 km/h (0 Bft) N 0,00 h 0,000 mm 0,0 UV-I 0 W/m -2,9 C -1,1 C 0,0 km/h (0 Bft)
28.02.2015 01:00 -1,2 C 89 % 1019,0 hPa 0,0 l/m 0,0 km/h (0 Bft) N 0,00 h 0,000 mm 0,0 UV-I 0 W/m -2,8 C -1,2 C 0,1 km/h (0 Bft)
28.02.2015 02:00 -0,6 C 90 % 1019,3 hPa 0,0 l/m 0,0 km/h (0 Bft) N 0,00 h 0,000 mm 0,0 UV-I 0 W/m -2,0 C -0,6 C 0,0 km/h (0 Bft)
28.02.2015 03:00 0,0 C 89 % 1019,2 hPa 0,0 l/m 0,0 km/h (0 Bft) N 0,00 h 0,000 mm 0,0 UV-I 0 W/m -1,5 C 0,0 C 0,0 km/h (0 Bft)
28.02.2015 04:00 0,5 C 91 % 1019,2 hPa 0,0 l/m 0,7 km/h (0 Bft) N 0,00 h 0,000 mm 0,0 UV-I 0 W/m -0,9 C 0,5 C 2,1 km/h (1 Bft)
28.02.2015 05:00 1,1 C 93 % 1019,6 hPa 0,0 l/m 2,7 km/h (1 Bft) N 0,00 h 0,000 mm 0,0 UV-I 0 W/m 0,1 C 1,1 C 4,7 km/h (1 Bft)
28.02.2015 06:00 1,1 C 92 % 1020,1 hPa 0,0 l/m 2,6 km/h (1 Bft) NW 0,00 h 0,000 mm 0,0 UV-I 0 W/m 0,0 C 1,1 C 4,7 km/h (1 Bft)
28.02.2015 07:00 0,8 C 93 % 1020,8 hPa 0,0 l/m 0,5 km/h (0 Bft) NW 0,00 h 0,000 mm 0,0 UV-I 13 W/m -0,2 C 0,8 C 1,6 km/h (1 Bft)
28.02.2015 08:00 0,7 C 93 % 1021,4 hPa 0,0 l/m 0,9 km/h (0 Bft) N 0,10 h 0,000 mm 0,0 UV-I 37 W/m -0,3 C 0,7 C 2,2 km/h (1 Bft)
28.02.2015 09:00 1,1 C 92 % 1021,6 hPa 0,0 l/m 0,2 km/h (0 Bft) N 0,95 h 0,025 mm 0,7 UV-I 92 W/m -0,1 C 1,1 C 1,0 km/h (0 Bft)
28.02.2015 10:00 2,4 C 85 % 1021,5 hPa 0,0 l/m 0,6 km/h (0 Bft) N 1,00 h 0,025 mm 1,0 UV-I 259 W/m 0,2 C 2,4 C 2,3 km/h (1 Bft)
28.02.2015 11:00 2,9 C 82 % 1021,4 hPa 0,0 l/m 0,8 km/h (0 Bft) N 1,00 h 0,102 mm 0,9 UV-I 176 W/m 0,2 C 2,9 C 2,0 km/h (1 Bft)
28.02.2015 12:00 3,4 C 77 % 1021,2 hPa 0,0 l/m 1,8 km/h (1 Bft) S 1,00 h 0,076 mm 1,1 UV-I 217 W/m -0,2 C 3,4 C 3,6 km/h (1 Bft)
28.02.2015 13:00 4,3 C 73 % 1020,5 hPa 0,0 l/m 2,5 km/h (1 Bft) SW 1,00 h 0,076 mm 1,4 UV-I 310 W/m -0,1 C 4,3 C 4,8 km/h (1 Bft)
28.02.2015 14:00 4,3 C 69 % 1019,9 hPa 0,0 l/m 4,7 km/h (1 Bft) SW 1,00 h 0,127 mm 0,8 UV-I 136 W/m -0,9 C 3,9 C 8,1 km/h (2 Bft)
28.02.2015 15:00 4,2 C 70 % 1019,7 hPa 0,0 l/m 3,4 km/h (1 Bft) S 1,00 h 0,076 mm 0,7 UV-I 91 W/m -0,8 C 4,2 C 6,3 km/h (2 Bft)
28.02.2015 16:00 4,3 C 68 % 1019,6 hPa 0,0 l/m 3,6 km/h (1 Bft) W-SW 0,33 h 0,051 mm 0,5 UV-I 51 W/m -1,1 C 4,2 C 6,1 km/h (2 Bft)
28.02.2015 17:00 3,9 C 70 % 1019,4 hPa 0,0 l/m 1,8 km/h (1 Bft) S-SW 0,00 h 0,025 mm 0,0 UV-I 12 W/m -1,1 C 3,9 C 3,9 km/h (1 Bft)
28.02.2015 18:00 3,1 C 74 % 1019,6 hPa 0,0 l/m 1,7 km/h (1 Bft) S 0,00 h 0,000 mm 0,0 UV-I 0 W/m -1,1 C 3,1 C 3,3 km/h (1 Bft)
28.02.2015 19:00 2,2 C 77 % 1019,4 hPa 0,0 l/m 2,7 km/h (1 Bft) S-SO 0,00 h 0,025 mm 0,0 UV-I 0 W/m -1,3 C 2,2 C 4,6 km/h (1 Bft)
28.02.2015 20:00 1,2 C 80 % 1019,2 hPa 0,0 l/m 0,7 km/h (0 Bft) S-SO 0,00 h 0,025 mm 0,0 UV-I 0 W/m -2,0 C 1,2 C 1,8 km/h (1 Bft)
28.02.2015 21:00 -0,0 C 82 % 1018,6 hPa 0,0 l/m 0,6 km/h (0 Bft) O-SO 0,00 h 0,002 mm 0,0 UV-I 0 W/m -2,8 C -0,0 C 1,5 km/h (1 Bft)
28.02.2015 22:00 -1,2 C 87 % 1018,0 hPa 0,0 l/m 0,2 km/h (0 Bft) O-SO 0,00 h 0,000 mm 0,0 UV-I 0 W/m -3,1 C -1,2 C 1,1 km/h (1 Bft)
28.02.2015 23:00 -1,6 C 90 % 1017,2 hPa 0,0 l/m 0,0 km/h (0 Bft) N 0,00 h 0,000 mm 0,0 UV-I 0 W/m -3,0 C -1,6 C 0,1 km/h (0 Bft)
01.03.2015 00:00 -1,2 C 93 % 1016,6 hPa 0,0 l/m 2,7 km/h (1 Bft) S 0,00 h 0,000 mm 0,0 UV-I 0 W/m -2,2 C -1,5 C 4,9 km/h (1 Bft)
01.03.2015 01:00 0,7 C 94 % 1016,0 hPa 0,0 l/m 7,6 km/h (2 Bft) S 0,00 h 0,000 mm 0,0 UV-I 0 W/m -0,2 C -0,9 C 11,8 km/h (2 Bft)
01.03.2015 02:00 0,6 C 92 % 1015,2 hPa 0,0 l/m 6,9 km/h (2 Bft) S 0,00 h 0,000 mm 0,0 UV-I 0 W/m -0,5 C -0,3 C 10,8 km/h (2 Bft)
01.03.2015 03:00 0,1 C 93 % 1014,1 hPa 0,0 l/m 5,3 km/h (1 Bft) S-SO 0,00 h 0,000 mm 0,0 UV-I 0 W/m -0,9 C -0,5 C 8,3 km/h (2 Bft)
01.03.2015 04:00 0,1 C 92 % 1013,4 hPa 0,0 l/m 8,1 km/h (2 Bft) S 0,00 h 0,000 mm 0,0 UV-I 0 W/m -1,1 C -2,2 C 12,6 km/h (2 Bft)
01.03.2015 05:00 0,1 C 91 % 1012,8 hPa 0,0 l/m 9,7 km/h (2 Bft) S 0,00 h 0,000 mm 0,0 UV-I 0 W/m -1,2 C -3,0 C 14,4 km/h (3 Bft)
01.03.2015 06:00 0,5 C 90 % 1011,8 hPa 0,0 l/m 10,5 km/h (2 Bft) S 0,00 h 0,000 mm 0,0 UV-I 6 W/m -1,0 C -3,1 C 15,9 km/h (3 Bft)
01.03.2015 07:00 0,9 C 89 % 1011,5 hPa 0,0 l/m 9,5 km/h (2 Bft) S 0,00 h 0,000 mm 0,0 UV-I 23 W/m -0,7 C -2,0 C 14,1 km/h (3 Bft)
01.03.2015 08:00 1,2 C 89 % 1011,3 hPa 0,0 l/m 9,4 km/h (2 Bft) S 0,32 h 0,025 mm 0,0 UV-I 39 W/m -0,4 C -1,5 C 13,2 km/h (3 Bft)
01.03.2015 09:00 1,0 C 92 % 1010,7 hPa 0,0 l/m 8,4 km/h (2 Bft) S 1,00 h 0,025 mm 0,5 UV-I 69 W/m -0,2 C -1,1 C 13,4 km/h (3 Bft)
01.03.2015 10:00 1,1 C 93 % 1009,8 hPa 0,0 l/m 10,1 km/h (2 Bft) S 1,00 h 0,025 mm 0,8 UV-I 123 W/m 0,1 C -2,2 C 15,0 km/h (3 Bft)
01.03.2015 11:00 1,4 C 93 % 1009,4 hPa 0,0 l/m 9,6 km/h (2 Bft) S 1,00 h 0,051 mm 0,6 UV-I 92 W/m 0,4 C -1,4 C 14,6 km/h (3 Bft)
01.03.2015 12:00 1,7 C 95 % 1009,3 hPa 0,2 l/m 6,6 km/h (2 Bft) S 0,92 h 0,025 mm 0,6 UV-I 74 W/m 1,0 C 0,6 C 10,9 km/h (2 Bft)
01.03.2015 13:00 2,4 C 95 % 1009,0 hPa 0,0 l/m 8,1 km/h (2 Bft) S 1,00 h 0,025 mm 0,7 UV-I 96 W/m 1,7 C 0,5 C 12,9 km/h (3 Bft)
01.03.2015 14:00 2,8 C 95 % 1008,6 hPa 0,0 l/m 8,4 km/h (2 Bft) S 0,47 h 0,025 mm 0,0 UV-I 49 W/m 2,1 C 1,0 C 12,9 km/h (3 Bft)
01.03.2015 15:00 2,9 C 96 % 1008,4 hPa 0,0 l/m 6,1 km/h (2 Bft) S 0,00 h 0,025 mm 0,0 UV-I 22 W/m 2,4 C 2,3 C 9,6 km/h (2 Bft)
01.03.2015 16:00 3,3 C 96 % 1008,3 hPa 0,0 l/m 4,4 km/h (1 Bft) S 0,00 h 0,003 mm 0,0 UV-I 11 W/m 2,7 C 3,2 C 7,5 km/h (2 Bft)
01.03.2015 17:00 3,9 C 97 % 1008,5 hPa 0,0 l/m 3,5 km/h (1 Bft) S 0,00 h 0,000 mm 0,0 UV-I 6 W/m 3,5 C 3,8 C 6,1 km/h (2 Bft)
01.03.2015 18:00 4,3 C 97 % 1008,5 hPa 0,2 l/m 6,2 km/h (2 Bft) S 0,00 h 0,000 mm 0,0 UV-I 0 W/m 3,8 C 3,6 C 10,2 km/h (2 Bft)
01.03.2015 19:00 4,7 C 96 % 1008,3 hPa 0,0 l/m 8,0 km/h (2 Bft) S 0,00 h 0,000 mm 0,0 UV-I 0 W/m 4,1 C 3,2 C 12,0 km/h (2 Bft)
01.03.2015 20:00 4,8 C 95 % 1008,0 hPa 0,0 l/m 7,4 km/h (2 Bft) S 0,00 h 0,000 mm 0,0 UV-I 0 W/m 4,1 C 3,4 C 11,3 km/h (2 Bft)
01.03.2015 21:00 4,8 C 96 % 1007,6 hPa 0,4 l/m 4,5 km/h (1 Bft) S-SW 0,00 h 0,000 mm 0,0 UV-I 0 W/m 4,2 C 4,5 C 7,7 km/h (2 Bft)
01.03.2015 22:00 4,8 C 96 % 1007,0 hPa 0,8 l/m 4,9 km/h (1 Bft) S 0,00 h 0,000 mm 0,0 UV-I 0 W/m 4,2 C 4,3 C 8,1 km/h (2 Bft)
01.03.2015 23:00 5,1 C 97 % 1006,6 hPa 0,0 l/m 4,6 km/h (1 Bft) S 0,00 h 0,000 mm 0,0 UV-I 0 W/m 4,6 C 4,9 C 8,4 km/h (2 Bft)
Min-Datum _ 27.02.15 27.02.15 23.02.15 - 23.02.15 - - - - - 27.02.15 01.03.15 23.02.15
_ Min-Zeit 07:07 16:34 12:42 - 00:00 - - - - - 07:08 06:02 00:00
Minimum _ -6,2 C 42 % 1000,4 hPa - 0,0 km/h (0 Bft) - - - - - -7,4 C -8,9 C 0,0 km/h (0 Bft)
Max-Datum _ 27.02.15 23.02.15 26.02.15 01.03.15 23.02.15 - 23.02.15 27.02.15 27.02.15 28.02.15 01.03.15 27.02.15 23.02.15
_ Max-Zeit 15:27 08:05 08:31 22:04 11:40 - 13:49 13:00 11:56 13:47 23:23 15:27 12:58
Maximum _ 8,7 C 97 % 1024,4 hPa 0,8 l/m 25,7 km/h
S (4 Bft)
- 0,08 h 0,254 mm 2,0 UV-I 621 W/m 4,7 C 8,7 C 37,0 km/h
S (5 Bft)
Durchschnitt _ 1,0 C 85 % 1014,0 hPa #2,4 l/m 3,0 km/h (1 Bft) N #54:51 h #5,611 mm 0,9 UV-I 163 W/m -1,3 C 0,5 C 5,1 km/h (1 Bft)